createdAt,value
2023-05-04T00:00:19.080Z,132.29
2023-05-04T00:01:19.134Z,134.49
2023-05-04T00:02:19.222Z,131.71
2023-05-04T00:03:19.293Z,132.99
2023-05-04T00:04:19.254Z,134.19
2023-05-04T00:05:19.238Z,133.34
2023-05-04T00:06:19.315Z,131.33
2023-05-04T00:07:19.362Z,135.38
2023-05-04T00:08:19.368Z,134.67
2023-05-04T00:09:19.448Z,134.77
2023-05-04T00:10:19.441Z,133.98
2023-05-04T00:11:19.457Z,132.00
2023-05-04T00:12:19.508Z,134.24
2023-05-04T00:13:19.532Z,132.32
2023-05-04T00:14:19.560Z,130.97
2023-05-04T00:15:19.620Z,132.08
2023-05-04T00:16:19.718Z,133.19
2023-05-04T00:17:19.727Z,135.17
2023-05-04T00:18:19.742Z,132.45
2023-05-04T00:19:20.494Z,135.20
2023-05-04T00:20:19.806Z,133.93
2023-05-04T00:21:19.861Z,134.35
2023-05-04T00:22:19.881Z,135.50
2023-05-04T00:23:19.930Z,132.16
2023-05-04T00:24:19.948Z,135.43
2023-05-04T00:25:20.025Z,134.46
2023-05-04T00:26:20.498Z,133.70
2023-05-04T00:27:20.069Z,136.76
2023-05-04T00:28:20.106Z,131.73
2023-05-04T00:29:20.163Z,131.48
2023-05-04T00:30:20.184Z,135.93
2023-05-04T00:31:20.244Z,133.88
2023-05-04T00:32:20.291Z,138.24
2023-05-04T00:33:20.313Z,132.11
2023-05-04T00:34:20.382Z,134.61
2023-05-04T00:35:20.395Z,132.59
2023-05-04T00:36:20.465Z,136.21
2023-05-04T00:37:20.993Z,134.75
2023-05-04T00:38:20.521Z,130.79
2023-05-04T00:39:20.594Z,135.93
2023-05-04T00:40:20.621Z,136.20
2023-05-04T00:41:20.677Z,134.40
2023-05-04T00:42:20.720Z,133.04
2023-05-04T00:43:20.752Z,136.43
2023-05-04T00:44:20.797Z,136.60
2023-05-04T00:45:20.840Z,135.15
2023-05-04T00:46:20.950Z,134.83
2023-05-04T00:47:21.048Z,135.07
2023-05-04T00:48:20.976Z,135.04
2023-05-04T00:49:21.017Z,130.22
2023-05-04T00:50:21.031Z,136.60
2023-05-04T00:51:21.106Z,134.59
2023-05-04T00:52:21.127Z,132.94
2023-05-04T00:53:21.160Z,133.59
2023-05-04T00:54:21.213Z,135.39
2023-05-04T00:55:21.234Z,134.75
2023-05-04T00:56:21.269Z,133.52
2023-05-04T00:57:21.362Z,137.23
2023-05-04T00:58:21.345Z,133.59
2023-05-04T00:59:21.390Z,136.83
2023-05-04T01:00:21.449Z,136.17
2023-05-04T01:01:21.466Z,134.82
2023-05-04T01:02:21.700Z,134.15
2023-05-04T01:03:21.595Z,132.56
2023-05-04T01:04:21.593Z,135.34
2023-05-04T01:05:21.611Z,134.76
2023-05-04T01:06:21.697Z,135.59
2023-05-04T01:07:21.718Z,132.83
2023-05-04T01:08:21.741Z,135.21
2023-05-04T01:09:21.802Z,137.29
2023-05-04T01:10:21.814Z,135.57
2023-05-04T01:11:21.858Z,136.51
2023-05-04T01:12:21.935Z,135.60
2023-05-04T01:13:21.943Z,135.53
2023-05-04T01:14:21.998Z,133.40
2023-05-04T01:15:22.066Z,135.29
2023-05-04T01:16:22.110Z,136.92
2023-05-04T01:17:22.138Z,134.92
2023-05-04T01:18:22.218Z,137.17
2023-05-04T01:19:22.243Z,134.43
2023-05-04T01:20:22.348Z,135.11
2023-05-04T01:21:22.296Z,131.09
2023-05-04T01:22:22.341Z,134.54
2023-05-04T01:23:22.390Z,136.15
2023-05-04T01:24:22.459Z,134.75
2023-05-04T01:25:22.469Z,136.61
2023-05-04T01:26:22.535Z,134.92
2023-05-04T01:27:22.612Z,136.66
2023-05-04T01:28:22.606Z,137.64
2023-05-04T01:29:22.662Z,135.04
2023-05-04T01:30:22.718Z,134.79
2023-05-04T01:31:22.855Z,138.57
2023-05-04T01:32:22.893Z,135.74
2023-05-04T01:33:22.830Z,134.12
2023-05-04T01:34:23.004Z,137.55
2023-05-04T01:35:22.949Z,135.17
2023-05-04T01:36:22.957Z,134.54
2023-05-04T01:37:23.002Z,134.81
2023-05-04T01:38:23.060Z,136.89
2023-05-04T01:39:23.097Z,135.12
2023-05-04T01:40:23.137Z,135.35
2023-05-04T01:41:23.176Z,133.89
2023-05-04T01:42:23.226Z,134.51
2023-05-04T01:43:23.292Z,133.42
2023-05-04T01:44:23.323Z,135.84
2023-05-04T01:45:23.379Z,136.03
2023-05-04T01:46:23.471Z,135.96
2023-05-04T01:47:23.518Z,134.92
2023-05-04T01:48:23.488Z,135.59
2023-05-04T01:49:23.551Z,131.86
2023-05-04T01:50:23.578Z,134.98
2023-05-04T01:51:23.613Z,135.86
2023-05-04T01:52:23.654Z,132.41
2023-05-04T01:53:23.715Z,135.60
2023-05-04T01:54:23.778Z,136.97
2023-05-04T01:55:23.802Z,134.07
2023-05-04T01:56:23.866Z,136.98
2023-05-04T01:57:23.917Z,137.19
2023-05-04T01:58:23.936Z,132.17
2023-05-04T01:59:23.981Z,132.41
2023-05-04T02:00:24.041Z,136.51
2023-05-04T02:01:24.094Z,135.17
2023-05-04T02:02:24.120Z,135.95
2023-05-04T02:03:24.264Z,135.19
2023-05-04T02:04:24.275Z,135.72
2023-05-04T02:05:24.283Z,137.26
2023-05-04T02:06:24.324Z,134.02
2023-05-04T02:07:24.362Z,135.59
2023-05-04T02:08:24.405Z,132.82
2023-05-04T02:09:24.436Z,133.32
2023-05-04T02:10:24.508Z,133.72
2023-05-04T02:11:24.576Z,136.34
2023-05-04T02:12:24.581Z,137.48
2023-05-04T02:13:24.642Z,137.21
2023-05-04T02:14:24.684Z,136.45
2023-05-04T02:15:24.741Z,135.55
2023-05-04T02:16:24.792Z,135.42
2023-05-04T02:17:24.852Z,134.34
2023-05-04T02:18:24.865Z,135.08
2023-05-04T02:19:24.937Z,134.17
2023-05-04T02:20:24.987Z,137.25
2023-05-04T02:21:25.022Z,136.42
2023-05-04T02:22:25.067Z,133.98
2023-05-04T02:23:25.113Z,135.77
2023-05-04T02:24:25.193Z,135.55
2023-05-04T02:25:25.222Z,135.42
2023-05-04T02:26:25.268Z,134.57
2023-05-04T02:27:25.367Z,133.03
2023-05-04T02:28:25.422Z,132.87
2023-05-04T02:29:25.422Z,135.28
2023-05-04T02:30:25.476Z,134.59
2023-05-04T02:31:25.560Z,131.63
2023-05-04T02:32:25.591Z,137.65
2023-05-04T02:33:25.642Z,135.68
2023-05-04T02:34:25.702Z,135.95
2023-05-04T02:35:25.723Z,136.94
2023-05-04T02:36:25.788Z,138.01
2023-05-04T02:37:25.823Z,135.38
2023-05-04T02:38:25.885Z,133.83
2023-05-04T02:39:25.965Z,135.55
2023-05-04T02:40:25.986Z,134.95
2023-05-04T02:41:26.045Z,132.91
2023-05-04T02:42:26.169Z,135.76
2023-05-04T02:43:26.134Z,135.92
2023-05-04T02:44:26.202Z,134.69
2023-05-04T02:45:26.241Z,136.58
2023-05-04T02:46:26.295Z,136.43
2023-05-04T02:47:26.442Z,136.18
2023-05-04T02:48:26.426Z,136.66
2023-05-04T02:49:26.470Z,132.17
2023-05-04T02:50:26.519Z,134.45
2023-05-04T02:51:26.558Z,133.81
2023-05-04T02:52:26.624Z,132.46
2023-05-04T02:53:26.651Z,134.88
2023-05-04T02:54:26.699Z,136.52
2023-05-04T02:55:26.773Z,137.50
2023-05-04T02:56:26.859Z,136.08
2023-05-04T02:57:26.912Z,135.16
2023-05-04T02:58:26.945Z,136.24
2023-05-04T02:59:27.590Z,136.61
2023-05-04T03:00:27.018Z,134.34
2023-05-04T03:01:27.130Z,133.62
2023-05-04T03:02:27.202Z,134.67
2023-05-04T03:03:27.185Z,135.59
2023-05-04T03:04:27.400Z,136.37
2023-05-04T03:05:27.334Z,136.62
2023-05-04T03:06:27.374Z,136.46
2023-05-04T03:07:27.421Z,136.94
2023-05-04T03:08:27.500Z,134.11
2023-05-04T03:09:27.527Z,134.92
2023-05-04T03:10:27.608Z,134.96
2023-05-04T03:11:27.635Z,135.70
2023-05-04T03:12:27.768Z,136.98
2023-05-04T03:13:27.751Z,134.48
2023-05-04T03:14:27.798Z,135.29
2023-05-04T03:15:27.880Z,135.16
2023-05-04T03:16:27.939Z,136.98
2023-05-04T03:17:27.989Z,135.32
2023-05-04T03:18:27.985Z,136.40
2023-05-04T03:19:29.068Z,136.46
2023-05-04T03:20:28.019Z,136.59
2023-05-04T03:21:27.988Z,135.38
2023-05-04T03:22:27.958Z,135.30
2023-05-04T03:23:27.976Z,134.49
2023-05-04T03:24:27.978Z,136.09
2023-05-04T03:25:27.957Z,136.75
2023-05-04T03:26:27.942Z,136.40
2023-05-04T03:27:27.933Z,135.53
2023-05-04T03:28:27.974Z,135.52
2023-05-04T03:29:27.995Z,131.14
2023-05-04T03:30:28.045Z,133.59
2023-05-04T03:31:28.172Z,133.32
2023-05-04T03:32:28.234Z,135.49
2023-05-04T03:33:28.242Z,134.90
2023-05-04T03:34:28.284Z,134.91
2023-05-04T03:35:28.340Z,134.42
2023-05-04T03:36:28.424Z,134.39
2023-05-04T03:37:28.500Z,135.56
2023-05-04T03:38:28.521Z,135.90
2023-05-04T03:39:28.580Z,133.73
2023-05-04T03:40:28.607Z,135.02
2023-05-04T03:41:28.700Z,134.44
2023-05-04T03:42:28.728Z,134.74
2023-05-04T03:43:28.789Z,134.44
2023-05-04T03:44:28.819Z,135.58
2023-05-04T03:45:28.886Z,133.43
2023-05-04T03:46:28.988Z,133.21
2023-05-04T03:47:29.014Z,136.20
2023-05-04T03:48:29.037Z,135.06
2023-05-04T03:49:29.102Z,134.82
2023-05-04T03:50:29.189Z,134.65
2023-05-04T03:51:29.198Z,132.95
2023-05-04T03:52:29.274Z,134.50
2023-05-04T03:53:29.343Z,135.16
2023-05-04T03:54:29.376Z,134.54
2023-05-04T03:55:29.415Z,131.18
2023-05-04T03:56:29.500Z,134.77
2023-05-04T03:57:29.555Z,133.94
2023-05-04T03:58:29.722Z,134.59
2023-05-04T03:59:29.645Z,133.78
2023-05-04T04:00:29.714Z,135.39
2023-05-04T04:01:29.741Z,135.30
2023-05-04T04:02:29.939Z,129.91
2023-05-04T04:03:30.105Z,131.04
2023-05-04T04:04:30.007Z,133.68
2023-05-04T04:05:29.978Z,131.54
2023-05-04T04:06:30.061Z,132.51
2023-05-04T04:07:30.111Z,133.09
2023-05-04T04:08:30.149Z,131.93
2023-05-04T04:09:30.206Z,133.55
2023-05-04T04:10:30.271Z,133.81
2023-05-04T04:11:30.345Z,133.36
2023-05-04T04:12:30.607Z,133.23
2023-05-04T04:13:30.428Z,135.54
2023-05-04T04:14:30.510Z,132.86
2023-05-04T04:15:30.566Z,130.71
2023-05-04T04:16:30.631Z,130.16
2023-05-04T04:17:30.691Z,131.26
2023-05-04T04:18:30.705Z,131.24
2023-05-04T04:19:30.746Z,132.15
2023-05-04T04:20:30.814Z,133.49
2023-05-04T04:21:30.838Z,132.19
2023-05-04T04:22:30.897Z,131.68
2023-05-04T04:23:30.962Z,130.46
2023-05-04T04:24:31.041Z,129.50
2023-05-04T04:25:31.055Z,131.84
2023-05-04T04:26:31.105Z,126.29
2023-05-04T04:27:31.196Z,127.24
2023-05-04T04:28:31.218Z,130.95
2023-05-04T04:29:31.279Z,131.44
2023-05-04T04:30:31.321Z,128.45
2023-05-04T04:31:31.451Z,129.25
2023-05-04T04:32:31.497Z,128.61
2023-05-04T04:33:31.481Z,130.75
2023-05-04T04:34:31.536Z,130.86
2023-05-04T04:35:31.576Z,128.38
2023-05-04T04:36:31.629Z,127.64
2023-05-04T04:37:31.694Z,130.16
2023-05-04T04:38:31.732Z,126.05
2023-05-04T04:39:31.893Z,128.18
2023-05-04T04:40:31.817Z,127.39
2023-05-04T04:41:31.848Z,126.45
2023-05-04T04:42:31.911Z,127.41
2023-05-04T04:43:31.965Z,122.57
2023-05-04T04:44:31.976Z,125.69
2023-05-04T04:45:33.704Z,125.34
2023-05-04T04:46:32.074Z,123.79
2023-05-04T04:47:32.179Z,122.65
2023-05-04T04:48:32.134Z,119.73
2023-05-04T04:49:32.139Z,119.57
2023-05-04T04:50:32.195Z,119.95
2023-05-04T04:51:32.212Z,123.39
2023-05-04T04:52:32.229Z,121.53
2023-05-04T04:53:32.242Z,123.12
2023-05-04T04:54:32.270Z,120.37
2023-05-04T04:55:32.291Z,119.35
2023-05-04T04:56:32.315Z,118.39
2023-05-04T04:57:32.337Z,118.55
2023-05-04T04:58:32.339Z,118.73
2023-05-04T04:59:32.355Z,117.15
2023-05-04T05:00:32.350Z,117.21
2023-05-04T05:01:32.414Z,116.80
2023-05-04T05:02:32.491Z,116.47
2023-05-04T05:03:32.500Z,115.75
2023-05-04T05:04:32.555Z,112.99
2023-05-04T05:05:32.570Z,114.38
2023-05-04T05:06:32.620Z,111.10
2023-05-04T05:07:32.687Z,105.47
2023-05-04T05:08:32.705Z,97.26
2023-05-04T05:09:32.752Z,92.58
2023-05-04T05:10:32.766Z,94.16
2023-05-04T05:11:32.817Z,110.80
2023-05-04T05:12:32.856Z,125.95
2023-05-04T05:13:32.873Z,151.15
2023-05-04T05:14:32.888Z,172.93
2023-05-04T05:15:32.936Z,188.00
2023-05-04T05:16:32.992Z,199.84
2023-05-04T05:17:33.023Z,210.61
2023-05-04T05:18:33.020Z,221.33
2023-05-04T05:19:33.109Z,229.24
2023-05-04T05:20:33.101Z,233.55
2023-05-04T05:21:33.147Z,236.24
2023-05-04T05:22:33.140Z,240.20
2023-05-04T05:23:33.146Z,239.85
2023-05-04T05:24:33.217Z,231.23
2023-05-04T05:25:33.316Z,213.00
2023-05-04T05:26:33.363Z,187.95
2023-05-04T05:27:33.279Z,167.26
2023-05-04T05:28:33.292Z,147.66
2023-05-04T05:29:33.373Z,132.44
2023-05-04T05:30:34.155Z,119.46
2023-05-04T05:31:33.545Z,109.47
2023-05-04T05:32:33.499Z,101.11
2023-05-04T05:33:33.471Z,94.23
2023-05-04T05:34:33.564Z,88.93
2023-05-04T05:35:33.567Z,86.10
2023-05-04T05:36:33.607Z,87.18
2023-05-04T05:37:33.637Z,81.86
2023-05-04T05:38:33.724Z,81.33
2023-05-04T05:39:33.675Z,79.81
2023-05-04T05:40:33.684Z,76.59
2023-05-04T05:41:33.706Z,76.61
2023-05-04T05:42:33.752Z,77.31
2023-05-04T05:43:33.785Z,77.53
2023-05-04T05:44:33.848Z,82.39
2023-05-04T05:45:33.874Z,81.84
2023-05-04T05:46:33.960Z,84.27
2023-05-04T05:47:34.023Z,88.37
2023-05-04T05:48:34.093Z,86.80
2023-05-04T05:49:34.167Z,92.81
2023-05-04T05:50:34.180Z,98.69
2023-05-04T05:51:34.184Z,102.23
2023-05-04T05:52:34.145Z,103.29
2023-05-04T05:53:34.186Z,110.96
2023-05-04T05:54:34.210Z,112.81
2023-05-04T05:55:34.170Z,116.77
2023-05-04T05:56:34.210Z,122.32
2023-05-04T05:57:34.245Z,125.42
2023-05-04T05:58:34.303Z,130.04
2023-05-04T05:59:34.348Z,135.61
2023-05-04T06:00:34.411Z,137.29
2023-05-04T06:01:34.424Z,139.74
2023-05-04T06:02:34.571Z,138.59
2023-05-04T06:03:34.635Z,141.39
2023-05-04T06:04:34.530Z,140.70
2023-05-04T06:05:34.481Z,145.96
2023-05-04T06:06:34.486Z,142.20
2023-05-04T06:07:34.521Z,145.48
2023-05-04T06:08:34.473Z,145.69
2023-05-04T06:09:34.477Z,148.11
2023-05-04T06:10:34.484Z,149.85
2023-05-04T06:11:34.630Z,148.31
2023-05-04T06:12:34.706Z,148.22
2023-05-04T06:13:34.502Z,152.58
2023-05-04T06:14:34.602Z,157.56
2023-05-04T06:15:34.514Z,156.74
2023-05-04T06:16:34.552Z,153.64
2023-05-04T06:17:36.181Z,157.58
2023-05-04T06:18:34.622Z,157.06
2023-05-04T06:19:34.619Z,160.67
2023-05-04T06:20:34.618Z,164.97
2023-05-04T06:21:34.593Z,164.12
2023-05-04T06:22:34.776Z,166.14
2023-05-04T06:23:34.629Z,168.92
2023-05-04T06:24:34.636Z,169.74
2023-05-04T06:25:34.675Z,171.98
2023-05-04T06:26:34.675Z,176.15
2023-05-04T06:27:34.722Z,176.23
2023-05-04T06:28:34.743Z,175.62
2023-05-04T06:29:34.727Z,174.73
2023-05-04T06:30:37.689Z,177.02
2023-05-04T06:31:34.801Z,178.93
2023-05-04T06:32:34.753Z,183.37
2023-05-04T06:33:34.800Z,180.81
2023-05-04T06:34:34.725Z,183.20
2023-05-04T06:35:34.744Z,181.50
2023-05-04T06:36:34.711Z,196.39
2023-05-04T06:37:35.279Z,191.49
2023-05-04T06:38:37.663Z,189.42
2023-05-04T06:39:34.732Z,189.65
2023-05-04T06:40:34.813Z,190.56
2023-05-04T06:41:34.703Z,191.26
2023-05-04T06:42:35.197Z,192.21
2023-05-04T06:43:34.686Z,194.52
2023-05-04T06:44:34.664Z,193.05
2023-05-04T06:45:34.685Z,193.96
2023-05-04T06:46:34.699Z,192.30
2023-05-04T06:47:34.729Z,193.15
2023-05-04T06:48:34.649Z,194.51
2023-05-04T06:49:34.704Z,196.79
2023-05-04T06:50:34.649Z,193.94
2023-05-04T06:51:34.612Z,195.94
2023-05-04T06:52:34.617Z,196.39
2023-05-04T06:53:34.608Z,195.56
2023-05-04T06:54:34.705Z,194.99
2023-05-04T06:55:34.655Z,196.66
2023-05-04T06:56:34.641Z,198.20
2023-05-04T06:57:34.589Z,197.45
2023-05-04T06:58:34.613Z,196.77
2023-05-04T06:59:34.583Z,197.76
2023-05-04T07:00:34.576Z,197.25
2023-05-04T07:01:34.708Z,197.75
2023-05-04T07:02:35.352Z,196.43
2023-05-04T07:03:34.640Z,195.16
2023-05-04T07:04:34.643Z,197.61
2023-05-04T07:05:34.728Z,196.43
2023-05-04T07:06:34.769Z,197.17
2023-05-04T07:07:34.770Z,195.49
2023-05-04T07:08:34.850Z,196.11
2023-05-04T07:09:34.873Z,195.50
2023-05-04T07:10:34.935Z,195.74
2023-05-04T07:11:34.974Z,196.84
2023-05-04T07:12:35.063Z,196.69
2023-05-04T07:13:35.106Z,196.27
2023-05-04T07:14:35.113Z,196.69
2023-05-04T07:15:35.195Z,196.38
2023-05-04T07:16:35.240Z,197.23
2023-05-04T07:17:35.389Z,196.37
2023-05-04T07:18:35.313Z,195.87
2023-05-04T07:19:35.361Z,197.61
2023-05-04T07:20:35.405Z,198.60
2023-05-04T07:21:35.499Z,194.55
2023-05-04T07:22:35.533Z,194.58
2023-05-04T07:23:35.603Z,196.03
2023-05-04T07:24:35.689Z,198.21
2023-05-04T07:25:35.752Z,197.58
2023-05-04T07:26:35.725Z,196.57
2023-05-04T07:27:35.776Z,197.36
2023-05-04T07:28:35.826Z,196.92
2023-05-04T07:29:36.668Z,195.77
2023-05-04T07:30:35.922Z,195.56
2023-05-04T07:31:36.127Z,196.28
2023-05-04T07:32:36.035Z,196.66
2023-05-04T07:33:36.147Z,195.64
2023-05-04T07:34:45.148Z,200.95
2023-05-04T07:35:37.104Z,200.98
2023-05-04T07:36:36.102Z,194.48
2023-05-04T07:37:36.162Z,188.25
2023-05-04T07:38:36.109Z,187.43
2023-05-04T07:39:36.141Z,177.46
2023-05-04T07:40:36.094Z,180.11
2023-05-04T07:41:36.173Z,176.33
2023-05-04T07:42:36.079Z,165.76
2023-05-04T07:43:36.152Z,171.84
2023-05-04T07:44:36.216Z,165.97
2023-05-04T07:45:36.280Z,163.63
2023-05-04T07:46:36.415Z,162.17
2023-05-04T07:47:36.652Z,150.32
2023-05-04T07:48:36.399Z,149.54
2023-05-04T07:49:36.469Z,131.56
2023-05-04T07:50:36.520Z,141.65
2023-05-04T07:51:37.183Z,138.45
2023-05-04T07:52:36.628Z,137.59
2023-05-04T07:53:36.664Z,129.86
2023-05-04T07:54:36.716Z,128.26
2023-05-04T07:55:36.752Z,136.32
2023-05-04T07:56:36.814Z,130.71
2023-05-04T07:57:36.860Z,118.93
2023-05-04T07:58:36.902Z,123.53
2023-05-04T07:59:36.936Z,120.86
2023-05-04T08:00:37.029Z,107.60
2023-05-04T08:01:37.040Z,113.96
2023-05-04T08:02:37.257Z,111.08
2023-05-04T08:03:37.137Z,105.36
2023-05-04T08:04:37.163Z,101.38
2023-05-04T08:05:37.181Z,86.23
2023-05-04T08:06:37.239Z,105.83
2023-05-04T08:07:37.275Z,98.12
2023-05-04T08:08:37.387Z,107.40
2023-05-04T08:09:37.365Z,103.71
2023-05-04T08:10:37.397Z,103.83
2023-05-04T08:11:37.445Z,107.12
2023-05-04T08:12:37.550Z,99.27
2023-05-04T08:13:37.530Z,105.52
2023-05-04T08:14:38.300Z,109.65
2023-05-04T08:15:37.597Z,108.58
2023-05-04T08:16:37.658Z,107.86
2023-05-04T08:17:37.735Z,109.73
2023-05-04T08:18:37.726Z,115.47
2023-05-04T08:19:37.822Z,109.09
2023-05-04T08:20:37.807Z,109.53
2023-05-04T08:21:37.883Z,108.46
2023-05-04T08:22:38.171Z,108.04
2023-05-04T08:23:37.958Z,104.35
2023-05-04T08:24:37.950Z,108.10
2023-05-04T08:25:38.251Z,96.49
2023-05-04T08:26:38.018Z,93.70
2023-05-04T08:27:38.199Z,83.90
2023-05-04T08:28:38.216Z,96.55
2023-05-04T08:29:38.139Z,106.36
2023-05-04T08:30:38.167Z,103.85
2023-05-04T08:31:38.259Z,93.29
2023-05-04T08:32:38.269Z,45.57
2023-05-04T08:33:38.301Z,45.52
2023-05-04T08:34:38.390Z,33.83
2023-05-04T08:35:38.390Z,25.74
2023-05-04T08:36:38.479Z,25.48
2023-05-04T08:37:38.706Z,28.31
2023-05-04T08:38:38.677Z,38.31
2023-05-04T08:39:40.487Z,51.84
2023-05-04T08:40:39.226Z,50.97
2023-05-04T08:41:38.604Z,52.06
2023-05-04T08:42:38.618Z,62.29
2023-05-04T08:43:38.614Z,63.56
2023-05-04T08:44:38.587Z,58.96
2023-05-04T08:45:38.622Z,64.07
2023-05-04T08:46:38.604Z,70.40
2023-05-04T08:47:38.697Z,77.52
2023-05-04T08:48:38.572Z,75.38
2023-05-04T08:49:38.545Z,61.08
2023-05-04T08:50:38.552Z,72.17
2023-05-04T08:51:38.589Z,49.03
2023-05-04T08:52:38.542Z,1.51
2023-05-04T08:53:38.547Z,1.10
2023-05-04T08:54:38.511Z,0.00
2023-05-04T08:55:38.574Z,13.80
2023-05-04T08:56:38.499Z,25.00
2023-05-04T08:57:38.585Z,26.33
2023-05-04T08:58:38.499Z,31.17
2023-05-04T08:59:38.537Z,36.20
2023-05-04T09:00:38.514Z,25.54
2023-05-04T09:01:38.501Z,38.31
2023-05-04T09:02:38.490Z,25.09
2023-05-04T09:03:38.540Z,17.36
2023-05-04T09:04:38.439Z,26.11
2023-05-04T09:05:38.460Z,36.35
2023-05-04T09:06:38.428Z,28.74
2023-05-04T09:07:38.447Z,25.06
2023-05-04T09:08:38.471Z,19.57
2023-05-04T09:09:38.416Z,23.57
2023-05-04T09:10:38.399Z,24.99
2023-05-04T09:11:38.429Z,32.88
2023-05-04T09:12:38.438Z,38.79
2023-05-04T09:13:38.385Z,27.06
2023-05-04T09:14:38.438Z,24.52
2023-05-04T09:15:38.360Z,29.73
2023-05-04T09:16:38.377Z,27.60
2023-05-04T09:17:47.525Z,30.63
2023-05-04T09:18:39.374Z,18.28
2023-05-04T09:19:38.329Z,21.96
2023-05-04T09:20:38.343Z,17.02
2023-05-04T09:21:38.324Z,8.19
2023-05-04T09:22:38.329Z,5.76
2023-05-04T09:23:38.371Z,25.95
2023-05-04T09:24:38.317Z,25.00
2023-05-04T09:25:38.293Z,31.13
2023-05-04T09:26:38.282Z,34.57
2023-05-04T09:27:38.304Z,40.18
2023-05-04T09:28:38.294Z,48.91
2023-05-04T09:29:38.279Z,48.63
2023-05-04T09:30:38.276Z,52.03
2023-05-04T09:31:38.276Z,55.02
2023-05-04T09:32:38.267Z,56.47
2023-05-04T09:33:38.772Z,59.93
2023-05-04T09:34:38.260Z,74.92
2023-05-04T09:35:38.273Z,79.44
2023-05-04T09:36:38.262Z,79.29
2023-05-04T09:37:38.212Z,86.96
2023-05-04T09:38:38.241Z,86.54
2023-05-04T09:39:38.191Z,88.29
2023-05-04T09:40:38.196Z,75.70
2023-05-04T09:41:38.198Z,73.60
2023-05-04T09:42:38.201Z,88.59
2023-05-04T09:43:38.160Z,85.50
2023-05-04T09:44:38.209Z,88.05
2023-05-04T09:45:38.162Z,73.78
2023-05-04T09:46:38.195Z,51.17
2023-05-04T09:47:38.244Z,66.13
2023-05-04T09:48:38.263Z,63.83
2023-05-04T09:49:38.271Z,63.97
2023-05-04T09:50:38.366Z,81.75
2023-05-04T09:51:38.380Z,74.86
2023-05-04T09:52:38.436Z,64.29
2023-05-04T09:53:38.489Z,70.40
2023-05-04T09:54:38.571Z,79.60
2023-05-04T09:55:38.658Z,69.37
2023-05-04T09:56:38.680Z,79.03
2023-05-04T09:57:38.744Z,75.56
2023-05-04T09:58:38.798Z,76.81
2023-05-04T09:59:38.892Z,72.61
2023-05-04T10:00:38.936Z,87.26
2023-05-04T10:01:39.084Z,103.80
2023-05-04T10:02:39.152Z,111.24
2023-05-04T10:03:39.101Z,113.06
2023-05-04T10:04:39.235Z,111.69
2023-05-04T10:05:39.307Z,116.70
2023-05-04T10:06:39.281Z,130.17
2023-05-04T10:07:41.470Z,140.65
2023-05-04T10:08:39.301Z,146.83
2023-05-04T10:09:39.341Z,153.37
2023-05-04T10:10:39.390Z,152.22
2023-05-04T10:11:39.419Z,153.80
2023-05-04T10:12:39.531Z,156.53
2023-05-04T10:13:39.479Z,159.71
2023-05-04T10:14:39.533Z,167.10
2023-05-04T10:15:39.581Z,201.36
2023-05-04T10:16:39.658Z,192.98
2023-05-04T10:17:39.654Z,189.47
2023-05-04T10:18:39.692Z,192.45
2023-05-04T10:19:39.717Z,190.05
2023-05-04T10:20:39.742Z,193.09
2023-05-04T10:21:39.779Z,193.28
2023-05-04T10:22:39.887Z,191.98
2023-05-04T10:23:40.754Z,189.17
2023-05-04T10:24:39.877Z,188.16
2023-05-04T10:25:39.937Z,186.96
2023-05-04T10:26:39.957Z,183.12
2023-05-04T10:27:39.973Z,142.67
2023-05-04T10:28:40.069Z,150.50
2023-05-04T10:29:40.070Z,143.97
2023-05-04T10:30:40.087Z,152.82
2023-05-04T10:31:40.180Z,154.35
2023-05-04T10:32:40.245Z,149.38
2023-05-04T10:33:40.221Z,150.38
2023-05-04T10:34:40.272Z,153.34
2023-05-04T10:35:40.301Z,151.51
2023-05-04T10:36:40.424Z,131.05
2023-05-04T10:37:40.410Z,145.50
2023-05-04T10:38:40.491Z,144.65
2023-05-04T10:39:40.516Z,140.96
2023-05-04T10:40:40.548Z,139.61
2023-05-04T10:41:40.615Z,63.36
2023-05-04T10:42:40.716Z,66.72
2023-05-04T10:43:40.777Z,55.74
2023-05-04T10:44:40.786Z,53.27
2023-05-04T10:45:40.818Z,64.75
2023-05-04T10:46:40.847Z,39.01
2023-05-04T10:47:41.031Z,58.01
2023-05-04T10:48:40.881Z,67.61
2023-05-04T10:49:40.902Z,66.75
2023-05-04T10:50:40.969Z,70.85
2023-05-04T10:51:48.922Z,86.75
2023-05-04T10:52:42.014Z,87.18
2023-05-04T10:53:41.015Z,86.41
2023-05-04T10:54:41.044Z,77.41
2023-05-04T10:55:41.008Z,70.42
2023-05-04T10:56:41.062Z,78.02
2023-05-04T10:57:41.043Z,99.91
2023-05-04T10:58:40.966Z,98.75
2023-05-04T10:59:40.983Z,99.83
2023-05-04T11:00:40.961Z,101.27
2023-05-04T11:01:41.062Z,100.93
2023-05-04T11:02:41.219Z,101.21
2023-05-04T11:03:41.302Z,76.86
2023-05-04T11:04:41.162Z,86.36
2023-05-04T11:05:41.249Z,97.52
2023-05-04T11:06:41.253Z,99.51
2023-05-04T11:07:41.293Z,105.82
2023-05-04T11:08:41.375Z,113.59
2023-05-04T11:09:41.380Z,113.57
2023-05-04T11:10:41.492Z,82.09
2023-05-04T11:11:41.505Z,82.38
2023-05-04T11:12:41.536Z,50.78
2023-05-04T11:13:41.600Z,60.36
2023-05-04T11:14:41.620Z,54.00
2023-05-04T11:15:41.683Z,49.16
2023-05-04T11:16:41.859Z,65.37
2023-05-04T11:17:41.797Z,74.12
2023-05-04T11:18:41.896Z,77.61
2023-05-04T11:19:41.902Z,90.08
2023-05-04T11:20:41.997Z,100.65
2023-05-04T11:21:42.021Z,101.94
2023-05-04T11:22:42.109Z,99.41
2023-05-04T11:23:42.167Z,105.90
2023-05-04T11:24:42.198Z,115.85
2023-05-04T11:25:42.270Z,122.41
2023-05-04T11:26:42.311Z,124.51
2023-05-04T11:27:42.372Z,122.86
2023-05-04T11:28:42.478Z,122.00
2023-05-04T11:29:42.500Z,114.43
2023-05-04T11:30:42.552Z,120.81
2023-05-04T11:31:42.712Z,130.88
2023-05-04T11:32:42.734Z,131.83
2023-05-04T11:33:42.779Z,133.64
2023-05-04T11:34:42.806Z,132.23
2023-05-04T11:35:42.877Z,138.78
2023-05-04T11:36:42.946Z,143.50
2023-05-04T11:37:43.018Z,141.38
2023-05-04T11:38:43.300Z,139.45
2023-05-04T11:39:43.113Z,140.36
2023-05-04T11:40:43.134Z,146.02
2023-05-04T11:41:43.184Z,146.82
2023-05-04T11:42:43.266Z,146.20
2023-05-04T11:43:43.301Z,151.98
2023-05-04T11:44:43.264Z,153.32
2023-05-04T11:45:43.296Z,156.04
2023-05-04T11:46:43.384Z,159.24
2023-05-04T11:47:43.373Z,159.21
2023-05-04T11:48:43.337Z,160.62
2023-05-04T11:49:43.312Z,160.16
2023-05-04T11:50:43.374Z,161.79
2023-05-04T11:51:43.400Z,163.74
2023-05-04T11:52:43.421Z,163.33
2023-05-04T11:53:43.432Z,164.34
2023-05-04T11:54:43.398Z,163.56
2023-05-04T11:55:43.419Z,165.16
2023-05-04T11:56:43.459Z,168.67
2023-05-04T11:57:43.463Z,168.24
2023-05-04T11:58:43.510Z,169.52
2023-05-04T11:59:43.517Z,172.98
2023-05-04T12:00:43.552Z,173.28
2023-05-04T12:01:43.529Z,172.73
2023-05-04T12:02:43.618Z,173.86
2023-05-04T12:03:53.688Z,174.20
2023-05-04T12:04:44.565Z,174.34
2023-05-04T12:05:43.582Z,174.78
2023-05-04T12:06:43.513Z,175.78
2023-05-04T12:07:43.557Z,178.02
2023-05-04T12:08:43.532Z,179.68
2023-05-04T12:09:43.519Z,180.51
2023-05-04T12:10:43.553Z,182.04
2023-05-04T12:11:43.483Z,182.90
2023-05-04T12:12:43.503Z,181.97
2023-05-04T12:13:43.486Z,183.31
2023-05-04T12:14:43.499Z,185.06
2023-05-04T12:15:43.455Z,183.62
2023-05-04T12:16:43.504Z,182.30
2023-05-04T12:17:43.484Z,184.50
2023-05-04T12:18:43.424Z,184.59
2023-05-04T12:19:43.456Z,186.43
2023-05-04T12:20:43.451Z,189.38
2023-05-04T12:21:43.443Z,186.87
2023-05-04T12:22:43.405Z,186.35
2023-05-04T12:23:43.449Z,187.77
2023-05-04T12:24:43.428Z,189.66
2023-05-04T12:25:54.646Z,189.76
2023-05-04T12:26:44.394Z,189.86
2023-05-04T12:27:43.382Z,189.94
2023-05-04T12:28:43.360Z,190.42
2023-05-04T12:29:43.388Z,191.98
2023-05-04T12:30:43.347Z,192.73
2023-05-04T12:31:43.429Z,192.41
2023-05-04T12:32:43.359Z,193.69
2023-05-04T12:33:43.345Z,191.92